Terminal Aerodrome Forecast
Issued by NWS

Home | Current Version | Previous Version | Text Only | Print | Product List | Glossary On
Versions: 1 2 3 4 5 6 7 8 9 10 11 12 13 14 15 16 17 18 19 20 21 22
000
FTUS43 KSGF 251354 AAA
TAFJLN
TAF AMD
KJLN 251354Z 2514/2612 12010G16KT 6SM -SHRA VCTS SCT050 OVC100CB
     FM251500 14012G18KT P6SM BKN120 OVC200
     FM251800 17014G20KT P6SM SCT120
     FM260800 19009KT P6SM BKN040=

USA.gov is the U.S. government's official web portal to all federal, state and local government web resources and services.